Historyczne dane pomiarowe

Dodano dane terminowe – wersja testowa.

Dane z okresu 1951-2019

Wersja bazy: 1.34 [2019-03-16, lista zmian], aktualizacja planowana na 2019-04-15

Dane meteo z obszaru Polski uzyskane na podstawie danych udostępnionych przez Instytut Meteorologii i Gospodarki Wodnej – Państwowy Instytut Badawczy.

 

Wybierz Datę:    

       

TemperaturaWilgotnośćWiatrCiśnienieOpadyŚniegCzas trwania zjawisk
 Stacja t tx tn tng RH VA  wxwx mslp ppp RRR   cm mm wxwxwxwxwxwxwx
2019-08-31 15.6 18.5 13.6- 70.9 12.6 1.1 7.3 7.5 1.5- 844.0 0.0 0.0 0.0- 0.0 11.5-------
2019-08-30 15.2 17.5 13.2- 73.0 12.6 4.4 3.4 0.0 0.0- 847.5 0.0 0.0 0.0- 0.0 6.9 0.1----- 1.1
2019-08-29 15.8 18.8 13.3- 65.3 11.7 4.8 5.1 0.0 0.0- 844.7 2.9 2.9 0.0- 0.0 5.4 1.7----- 5.4
2019-08-28 14.8 17.4 13.0- 88.8 14.8 6.9 8.3 7.8 0.0- 843.2 0.0 0.0 0.0- 0.0 6.6--- 8.8---
2019-08-27 13.5 15.3 11.6- 92.3 14.3 6.5 11.1 19.3 0.0- 844.5 0.0 0.0 0.0- 0.0 2.5--- 14.8---
2019-08-26 15.0 18.2 13.0- 78.4 13.3 5.9 7.8 4.5 0.0- 846.1 0.0 0.0 0.0- 0.0 7.2 0.2----- 2.2
2019-08-25 14.9 18.0 12.4- 78.9 13.3 5.9 4.9 3.5 0.0- 846.7 0.0 0.0 0.0- 0.0 5.6-------
2019-08-24 12.0 15.3 9.7- 97.1 13.6 6.0 7.0 8.1 0.0- 847.1 0.0 0.0 0.0- 0.0 2.2--- 15.3---
2019-08-23 9.5 13.4 6.4- 96.6 11.6 4.4 5.0 2.0 0.0- 848.4 0.0 0.0 0.0- 0.0 6.1--- 12.0---
2019-08-22 7.1 8.7 5.3- 96.1 9.7 6.0 7.5 5.3 0.0- 848.2 0.0 0.0 0.0- 0.0 1.0--- 17.0---
2019-08-21 6.5 10.9 4.9- 96.5 9.3 6.0 11.5 9.3 6.5- 846.5 0.7 0.7 0.0- 0.0 4.9 6.5-- 14.3---
2019-08-20 10.7 13.8 9.7- 89.4 11.5 7.1 5.6 4.5 2.5- 844.1 15.5 6.1 9.4- 0.0 0.7 10.0-- 12.3---
2019-08-19 11.8 16.8 9.6- 85.6 11.6 7.1 9.1 8.5 1.2- 840.3 7.0 7.0 0.0- 0.0 0.0 3.2-- 11.8---
2019-08-18 12.8 17.4 8.5- 83.5 12.2 5.1 9.4 10.8 0.8- 835.7 5.1 0.1 5.0- 0.0 7.8 0.9-- 5.0---
2019-08-17 8.4 10.6 6.3- 91.0 10.0 5.9 7.1 5.6 0.0- 837.9 0.0 0.0 0.0- 0.0 0.9 1.2-- 0.7---
2019-08-16 7.5 8.7 6.6- 94.3 9.7 6.3 6.4 2.0 0.0- 838.8 4.1 4.1 0.0- 0.0 2.9 0.2-- 14.5---
2019-08-15 7.6 11.3 5.4- 71.8 7.5 3.9 6.0 0.0 0.0- 837.8 0.4 0.1 0.3- 0.0 8.3 0.4-- 0.5---
2019-08-14 6.0 8.2 4.0- 76.8 7.1 5.6 7.0 5.1 0.0- 839.3 2.0 2.0 0.0- 0.0 6.6 0.7------
2019-08-13 8.2 11.0 6.3- 86.8 9.4 7.0 9.3 6.8 0.7- 838.6 0.1 0.1 0.0- 0.0 6.9 2.5-- 5.3---
2019-08-12 10.9 15.5 8.8- 94.0 12.3 7.1 6.6 4.3 1.0- 839.3 5.8 5.2 0.6- 0.0 0.9 6.9-- 14.2-- 1.1
2019-08-11 11.6 14.8 8.6- 78.6 10.7 2.9 10.5 11.8 3.2- 841.4 3.8 0.0 3.8- 0.0 13.2 0.2-- 1.2-- 0.1
2019-08-10 12.0 15.6 8.6- 92.3 13.0 7.4 13.5 22.0 7.3- 838.3 2.0 2.0 0.0- 0.0 1.1 5.2-- 19.5---
2019-08-09 12.4 16.0 9.6- 69.4 9.9 5.8 10.5 12.7 2.3- 838.7 3.1 0.0 3.1- 0.0 11.3-------
2019-08-08 9.9 12.8 7.7- 85.3 10.4 5.9 10.5 10.3 3.5- 836.0 0.0 0.0 0.0- 0.0 10.5--- 4.2---
2019-08-07 11.7 14.5 10.2- 90.6 12.4 7.3 8.5 8.1 1.8- 833.7 2.3 1.2 1.1- 0.0 4.2 6.9-- 12.7-- 1.1
2019-08-06 12.5 15.8 10.6- 83.4 12.0 6.1 8.9 12.1 0.0- 836.7 3.2 2.8 0.4- 0.0 7.0 1.0----- 1.0
2019-08-05 10.7 14.1 8.7- 81.0 10.4 5.4 8.6 11.0 0.0- 837.8 3.7 3.5 0.2- 0.0 7.0 3.3------
2019-08-04 8.8 11.4 6.5- 85.6 9.7 4.6 6.3 1.6 0.0- 839.1 0.9 0.8 0.1- 0.0 4.9 0.8------
2019-08-03 7.5 9.4 5.7- 93.6 9.7 6.3 9.9 17.1 0.0- 836.4 1.9 1.7 0.2- 0.0 2.2 2.3-- 12.0---
2019-08-02 9.0 10.8 7.6- 86.4 9.9 5.6 6.9 0.0 0.0- 838.1 0.2 0.0 0.2- 0.0 5.9-------
2019-08-01 10.0 11.7 8.3- 80.0 9.8 5.8 8.4 7.3 0.0- 839.9 0.4 0.4 0.0- 0.0 9.4 1.1-- 2.2---
2019-07-31 11.8 13.7 9.6- 88.1 12.2 7.1 10.8 19.3 0.0- 839.0 1.6 1.6 0.0- 0.0 6.6 0.6-- 8.3---
2019-07-30 13.8 16.2 13.1- 96.5 15.2 7.3 9.5 15.8 0.0- 837.0 0.6 0.0 0.6- 0.0 1.9 0.5-- 19.7---
2019-07-29 15.7 18.8 13.1- 76.0 13.5 6.3 8.5 7.5 0.0- 834.7 0.0 0.0 0.0- 0.0 10.8--- 3.5---
2019-07-28 13.0 16.5 10.0- 89.4 13.4 6.4 8.8 5.8 0.0- 829.9 1.4 0.6 0.8- 0.0 6.2 1.7-- 5.3-- 0.8
2019-07-27 11.9 15.0 9.9- 79.1 11.0 3.9 7.4 4.6 0.0- 832.2 0.0 0.0 0.0- 0.0 10.8--- 2.4---
2019-07-26 14.4 18.1 13.0- 65.4 10.6 1.3 8.1 11.5 0.0- 838.8 0.0 0.0 0.0- 0.0 14.4-------
2019-07-25 17.2 19.9 14.7- 47.8 9.2 2.5 6.0 0.3 0.0- 844.4 0.0 0.0 0.0- 0.0 14.4-------
2019-07-24 15.0 18.3 12.0- 68.8 11.5 2.4 6.5 1.2 0.0- 844.4 0.0 0.0 0.0- 0.0 14.8-------
2019-07-23 12.3 15.7 9.2- 90.0 12.8 5.1 13.1 22.0 5.7- 844.6 0.0 0.0 0.0- 0.0 9.9--- 8.9---
2019-07-22 11.5 14.1 10.0- 75.6 10.2 6.8 8.6 11.0 0.0- 846.1 0.1 0.0 0.1- 0.0 4.6 1.5------
2019-07-21 12.1 15.9 9.7- 83.9 11.7 6.8 10.6 13.9 0.7- 842.8 0.9 0.9 0.0- 0.0 4.4 2.7-- 3.8-- 0.5
2019-07-20 12.8 17.3 9.3- 82.0 11.8 6.8 6.4 4.5 0.0- 840.8 0.1 0.0 0.1- 0.0 9.8 0.1-- 6.9---
2019-07-19 10.9 13.9 9.8- 79.9 10.3 6.5 6.4 1.0 0.0- 839.2 2.0 2.0 0.0- 0.0 2.3 1.9-- 4.8---
2019-07-18 9.3 12.1 6.6- 80.5 9.4 5.9 2.5 0.0 0.0- 837.2 0.0 0.0 0.0- 0.0 5.7-------
2019-07-17 6.5 9.1 4.2- 92.6 8.9 6.9 8.8 8.5 0.0- 836.2 0.0 0.0 0.0- 0.0 9.0--- 10.2---
2019-07-16 4.5 9.4 3.0- 99.1 8.3 7.4 10.4 16.7 3.8- 835.7 0.4 0.0 0.4- 0.0 4.3--- 22.3---
2019-07-15 7.0 8.7 5.3- 99.0 10.0 7.5 7.8 6.3 0.0- 837.5 0.0 0.0 0.0- 0.0 2.1 2.6-- 18.4---
2019-07-14 6.6 8.1 5.0- 99.1 9.6 7.8 12.1 21.2 1.0- 836.5 11.1 4.7 6.4- 0.0 2.3 3.2-- 24.0---
2019-07-13 7.2 8.9 5.9- 95.5 9.6 7.8 9.4 14.0 1.7- 833.7 12.9 12.3 0.6- 0.0 0.4 3.2-- 20.5---
2019-07-12 7.7 9.5 6.7- 90.9 9.5 7.4 4.1 0.0 0.0- 834.5 10.1 10.0 0.1- 0.0 1.4 6.3-- 7.5---
2019-07-11 7.1 10.4 4.1- 81.3 8.0 6.8 7.8 8.7 0.0- 836.2 0.0 0.0 0.0- 0.0 9.6 0.7-- 7.5---
2019-07-10 4.1 7.3 2.0- 93.4 7.6 7.3 12.0 23.0 0.0- 836.9 0.4 0.0 0.4- 0.0 6.0--- 13.8---
2019-07-09 2.3 4.4 1.3- 93.6 6.8 7.4 10.5 15.1 0.8- 836.1 0.1 0.0 0.1- 0.0 1.1 0.1-- 13.9---
2019-07-08 2.4 4.7 0.4- 85.6 6.2 6.4 11.5 21.8 0.0- 834.9 0.0 0.0 0.0- 0.0 3.5--- 4.7---
2019-07-07 6.6 14.2 4.4- 86.6 8.5 6.3 12.1 18.8 5.0- 831.9 0.0 0.0 0.0- 0.0 6.6 1.2-- 8.7---
2019-07-06 11.5 16.0 7.6- 64.0 8.4 5.5 10.3 12.5 4.2- 834.4 0.6 0.0 0.6- 0.0 9.4-------
2019-07-05 8.3 9.7 6.7- 69.3 7.6 7.0 14.1 24.0 5.7- 837.1 0.0 0.0 0.0- 0.0 1.7 0.9------
2019-07-04 6.3 10.0 2.6- 70.3 6.5 4.4 6.5 4.3 0.0- 842.3 0.0 0.0 0.0- 0.0 13.8-------
2019-07-03 4.5 8.0 1.5- 76.6 6.4 2.1 11.0 12.1 1.2- 841.2 0.0 0.0 0.0- 0.0 14.5--- 1.8---
61.7 ms

 

Źródłem pochodzenia danych jest Instytut Meteorologii i Gospodarki Wodnej – Państwowy Instytut Badawczy. Dane Instytutu Meteorologii i Gospodarki Wodnej – Państwowego Instytutu Badawczego zostały przetworzone.

Dane źródłowe można odnaleźć na stronie https://dane.imgw.pl